createdAt,value
2019-06-10T00:01:43.439Z,44.10
2019-06-10T00:04:13.407Z,45.00
2019-06-10T00:06:43.773Z,44.77
2019-06-10T00:09:13.955Z,42.40
2019-06-10T00:11:44.229Z,43.77
2019-06-10T00:14:13.701Z,43.00
2019-06-10T00:16:43.872Z,45.50
2019-06-10T00:19:14.270Z,47.30
2019-06-10T00:21:44.694Z,47.40
2019-06-10T00:24:14.498Z,48.23
2019-06-10T00:26:45.028Z,47.60
2019-06-10T00:29:14.824Z,46.43
2019-06-10T00:31:44.666Z,47.67
2019-06-10T00:34:14.434Z,49.93
2019-06-10T00:36:44.507Z,48.83
2019-06-10T00:39:14.637Z,48.20
2019-06-10T00:41:45.312Z,49.57
2019-06-10T00:44:15.387Z,47.17
2019-06-10T00:46:45.784Z,51.33
2019-06-10T00:49:15.228Z,49.47
2019-06-10T00:51:44.651Z,47.73
2019-06-10T00:54:15.687Z,49.47
2019-06-10T00:56:45.786Z,47.53
2019-06-10T00:59:15.800Z,46.90
2019-06-10T01:01:45.965Z,47.03
2019-06-10T01:04:16.438Z,46.43
2019-06-10T01:06:46.155Z,45.27
2019-06-10T01:09:16.543Z,45.03
2019-06-10T01:11:46.908Z,45.03
2019-06-10T01:14:16.983Z,44.33
2019-06-10T01:16:46.744Z,43.07
2019-06-10T01:19:17.144Z,42.57
2019-06-10T01:21:47.571Z,42.87
2019-06-10T01:24:17.507Z,42.93
2019-06-10T01:26:47.112Z,44.10
2019-06-10T01:29:20.835Z,43.77
2019-06-10T01:31:51.065Z,44.80
2019-06-10T01:34:21.808Z,46.17
2019-06-10T01:36:50.916Z,45.40
2019-06-10T01:39:22.676Z,46.60
2019-06-10T01:41:51.387Z,43.67
2019-06-10T01:44:22.031Z,48.73
2019-06-10T01:46:51.645Z,48.37
2019-06-10T01:49:22.009Z,49.43
2019-06-10T01:51:51.933Z,48.00
2019-06-10T01:54:22.234Z,45.43
2019-06-10T01:56:52.243Z,46.13
2019-06-10T01:59:22.271Z,44.77
2019-06-10T02:01:52.241Z,46.53
2019-06-10T02:04:22.918Z,45.87
2019-06-10T02:06:53.145Z,45.57
2019-06-10T02:09:23.317Z,42.67
2019-06-10T02:11:53.138Z,44.27
2019-06-10T02:14:24.154Z,41.73
2019-06-10T02:16:53.557Z,42.10
2019-06-10T02:19:23.552Z,42.63
2019-06-10T02:21:53.398Z,41.13
2019-06-10T02:24:23.545Z,42.33
2019-06-10T02:26:53.446Z,44.77
2019-06-10T02:29:23.700Z,43.70
2019-06-10T02:31:53.423Z,45.60
2019-06-10T02:34:27.137Z,44.07
2019-06-10T02:36:54.007Z,38.75
2019-06-10T02:39:32.324Z,38.98
2019-06-10T02:41:54.265Z,38.63
2019-06-10T02:44:31.915Z,38.20
2019-06-10T02:46:54.684Z,40.47
2019-06-10T02:49:46.901Z,42.33
2019-06-10T02:51:55.563Z,42.67
2019-06-10T02:54:31.354Z,45.57
2019-06-10T02:56:55.505Z,47.25
2019-06-10T02:59:28.980Z,48.73
2019-06-10T03:01:55.482Z,46.92
2019-06-10T03:04:31.451Z,45.48
2019-06-10T03:06:56.315Z,44.77
2019-06-10T03:09:31.393Z,43.90
2019-06-10T03:11:57.445Z,44.98
2019-06-10T03:14:28.188Z,43.65
2019-06-10T03:16:58.594Z,39.83
2019-06-10T03:19:41.837Z,39.80
2019-06-10T03:21:59.405Z,37.73
2019-06-10T03:24:29.472Z,35.78
2019-06-10T03:26:59.283Z,37.15
2019-06-10T03:29:28.989Z,36.00
2019-06-10T03:31:58.976Z,36.85
2019-06-10T03:34:36.349Z,36.15
2019-06-10T03:37:02.335Z,33.03
2019-06-10T03:39:32.244Z,36.53
2019-06-10T03:42:02.599Z,33.08
2019-06-10T03:44:33.038Z,34.65
2019-06-10T03:47:03.515Z,33.88
2019-06-10T03:49:46.482Z,32.35
2019-06-10T03:52:04.364Z,33.73
2019-06-10T03:54:34.716Z,34.83
2019-06-10T03:57:04.676Z,32.80
2019-06-10T03:59:34.832Z,33.10
2019-06-10T04:02:05.152Z,34.48
2019-06-10T04:04:35.423Z,33.33
2019-06-10T04:07:05.625Z,33.18
2019-06-10T04:09:35.159Z,33.93
2019-06-10T04:12:05.474Z,31.62
2019-06-10T04:14:36.335Z,32.55
2019-06-10T04:17:07.241Z,34.30
2019-06-10T04:19:37.645Z,33.83
2019-06-10T04:22:09.318Z,32.67
2019-06-10T04:24:39.715Z,32.33
2019-06-10T04:27:09.469Z,30.77
2019-06-10T04:29:39.546Z,30.30
2019-06-10T04:32:09.629Z,30.88
2019-06-10T04:34:39.709Z,29.85
2019-06-10T04:37:09.464Z,31.45
2019-06-10T04:39:39.599Z,29.82
2019-06-10T04:42:09.954Z,30.25
2019-06-10T04:44:42.199Z,30.57
2019-06-10T04:47:12.069Z,29.77
2019-06-10T04:49:42.862Z,30.68
2019-06-10T04:52:12.312Z,29.70
2019-06-10T04:54:42.758Z,29.92
2019-06-10T04:57:13.075Z,28.25
2019-06-10T04:59:43.307Z,28.45
2019-06-10T05:02:13.469Z,30.02
2019-06-10T05:04:43.547Z,28.85
2019-06-10T05:07:13.647Z,28.75
2019-06-10T05:09:43.879Z,28.65
2019-06-10T05:12:14.121Z,26.37
2019-06-10T05:14:44.202Z,27.25
2019-06-10T05:17:14.274Z,27.48
2019-06-10T05:19:44.822Z,27.90
2019-06-10T05:33:04.566Z,27.05
2019-06-10T05:35:35.161Z,28.45
2019-06-10T05:38:05.152Z,28.07
2019-06-10T05:40:35.554Z,28.90
2019-06-10T05:43:06.270Z,27.90
2019-06-10T05:45:36.387Z,27.30
2019-06-10T05:48:06.761Z,28.05
2019-06-10T05:50:36.838Z,26.62
2019-06-10T05:53:06.911Z,27.13
2019-06-10T05:55:37.010Z,28.40
2019-06-10T05:58:07.270Z,27.93
2019-06-10T06:00:36.807Z,27.75
2019-06-10T06:03:07.555Z,28.65
2019-06-10T06:05:38.278Z,29.45
2019-06-10T06:08:09.133Z,28.87
2019-06-10T06:10:39.393Z,30.00
2019-06-10T06:13:09.743Z,30.62
2019-06-10T06:15:42.253Z,29.52
2019-06-10T06:18:13.433Z,29.35
2019-06-10T06:20:45.148Z,27.77
2019-06-10T06:23:15.545Z,29.05
2019-06-10T06:25:47.051Z,29.60
2019-06-10T06:28:16.321Z,28.67
2019-06-10T06:30:46.395Z,28.77
2019-06-10T06:33:16.253Z,28.75
2019-06-10T06:35:46.700Z,28.12
2019-06-10T06:38:17.306Z,29.30
2019-06-10T06:40:47.878Z,29.07
2019-06-10T06:43:18.115Z,28.32
2019-06-10T06:45:48.269Z,27.62
2019-06-10T06:48:18.312Z,29.87
2019-06-10T06:51:01.769Z,28.38
2019-06-10T06:53:28.929Z,28.70
2019-06-10T06:55:48.581Z,29.12
2019-06-10T06:58:18.363Z,28.70
2019-06-10T07:01:03.656Z,27.98
2019-06-10T07:03:19.110Z,27.87
2019-06-10T07:05:49.787Z,27.15
2019-06-10T07:08:19.878Z,26.77
2019-06-10T07:10:52.104Z,28.90
2019-06-10T07:13:22.138Z,27.62
2019-06-10T07:15:53.319Z,26.70
2019-06-10T07:18:23.235Z,27.35
2019-06-10T07:20:54.090Z,26.48
2019-06-10T07:23:23.397Z,26.95
2019-06-10T07:25:53.995Z,26.55
2019-06-10T07:28:23.707Z,25.97
2019-06-10T07:30:55.352Z,27.27
2019-06-10T07:33:24.196Z,27.13
2019-06-10T07:35:56.574Z,27.32
2019-06-10T07:38:26.281Z,27.22
2019-06-10T07:40:55.547Z,25.85
2019-06-10T07:43:26.153Z,25.85
2019-06-10T07:45:56.186Z,24.43
2019-06-10T07:48:25.818Z,23.42
2019-06-10T07:50:55.394Z,22.62
2019-06-10T07:53:24.827Z,22.37
2019-06-10T07:55:54.770Z,24.85
2019-06-10T07:58:24.619Z,23.65
2019-06-10T08:00:54.368Z,23.77
2019-06-10T08:03:24.185Z,23.10
2019-06-10T08:05:54.269Z,22.40
2019-06-10T08:08:24.410Z,24.50
2019-06-10T08:10:54.448Z,23.00
2019-06-10T08:13:24.831Z,23.65
2019-06-10T08:15:54.591Z,22.95
2019-06-10T08:18:24.028Z,21.77
2019-06-10T08:20:53.788Z,22.95
2019-06-10T08:23:23.931Z,22.42
2019-06-10T08:25:57.597Z,22.22
2019-06-10T08:28:24.359Z,22.15
2019-06-10T08:30:54.752Z,21.93
2019-06-10T08:33:25.148Z,22.80
2019-06-10T08:36:00.168Z,22.05
2019-06-10T08:38:26.270Z,21.33
2019-06-10T08:40:56.671Z,21.40
2019-06-10T08:43:27.387Z,22.70
2019-06-10T08:45:57.790Z,22.73
2019-06-10T08:48:27.868Z,22.55
2019-06-10T08:50:58.268Z,22.25
2019-06-10T08:53:28.488Z,21.80
2019-06-10T08:55:59.080Z,21.33
2019-06-10T08:58:29.796Z,21.12
2019-06-10T09:01:02.126Z,22.30
2019-06-10T09:03:32.454Z,21.17
2019-06-10T09:06:02.694Z,19.73
2019-06-10T09:08:32.663Z,21.45
2019-06-10T09:11:02.752Z,21.33
2019-06-10T09:13:33.598Z,20.68
2019-06-10T09:16:14.618Z,20.35
2019-06-10T09:18:34.920Z,22.07
2019-06-10T09:21:05.414Z,20.02
2019-06-10T09:23:35.395Z,20.08
2019-06-10T09:26:05.746Z,21.25
2019-06-10T09:28:36.199Z,20.17
2019-06-10T09:31:06.920Z,19.10
2019-06-10T09:33:37.309Z,20.57
2019-06-10T09:36:07.109Z,20.60
2019-06-10T09:38:36.916Z,21.30
2019-06-10T09:41:06.916Z,20.08
2019-06-10T09:43:37.004Z,20.02
2019-06-10T09:46:07.439Z,20.72
2019-06-10T09:48:37.551Z,20.12
2019-06-10T09:51:07.874Z,20.68
2019-06-10T09:53:42.706Z,20.80
2019-06-10T09:56:08.768Z,19.82
2019-06-10T09:58:39.095Z,20.80
2019-06-10T10:01:09.396Z,19.75
2019-06-10T10:03:39.239Z,20.62
2019-06-10T10:06:15.321Z,19.87
2019-06-10T10:08:41.367Z,20.43
2019-06-10T10:11:12.828Z,19.77
2019-06-10T10:13:45.008Z,18.52
2019-06-10T10:16:13.190Z,19.40
2019-06-10T10:18:47.358Z,19.32
2019-06-10T10:21:13.591Z,19.95
2019-06-10T10:23:56.590Z,19.60
2019-06-10T10:26:14.749Z,18.52
2019-06-10T10:28:46.865Z,20.02
2019-06-10T10:31:16.201Z,18.57
2019-06-10T10:33:46.795Z,19.20
2019-06-10T10:36:16.988Z,19.42
2019-06-10T10:38:47.070Z,19.70
2019-06-10T10:41:17.692Z,19.82
2019-06-10T10:43:51.185Z,19.82
2019-06-10T10:46:18.445Z,20.72
2019-06-10T10:48:49.028Z,20.35
2019-06-10T10:51:19.080Z,19.87
2019-06-10T10:54:15.504Z,22.15
2019-06-10T10:56:22.177Z,20.75
2019-06-10T10:58:55.619Z,20.88
2019-06-10T11:01:23.471Z,19.70
2019-06-10T11:03:58.728Z,20.43
2019-06-10T11:06:23.606Z,20.45
2019-06-10T11:08:55.843Z,19.62
2019-06-10T11:11:24.832Z,20.82
2019-06-10T11:13:56.884Z,20.15
2019-06-10T11:16:25.531Z,19.50
2019-06-10T11:18:56.428Z,20.25
2019-06-10T11:21:26.314Z,20.40
2019-06-10T11:24:01.279Z,19.52
2019-06-10T11:26:27.556Z,19.98
2019-06-10T11:28:58.061Z,20.05
2019-06-10T11:31:28.364Z,19.87
2019-06-10T11:33:59.178Z,20.05
2019-06-10T11:36:29.154Z,19.48
2019-06-10T11:38:59.550Z,20.82
2019-06-10T11:41:29.640Z,20.32
2019-06-10T11:43:59.463Z,20.37
2019-06-10T11:46:29.491Z,22.25
2019-06-10T11:48:59.602Z,22.77
2019-06-10T11:51:29.763Z,21.90
2019-06-10T11:53:59.718Z,22.32
2019-06-10T11:56:33.022Z,22.90
2019-06-10T11:59:07.952Z,22.17
2019-06-10T12:01:31.612Z,22.90
2019-06-10T12:04:04.069Z,22.98
2019-06-10T12:06:33.964Z,23.12
2019-06-10T12:09:03.392Z,21.90
2019-06-10T12:11:34.319Z,22.55
2019-06-10T12:14:04.568Z,24.27
2019-06-10T12:19:05.446Z,22.07
2019-06-10T12:21:35.199Z,23.00
2019-06-10T12:24:05.488Z,21.80
2019-06-10T12:26:35.357Z,21.42
2019-06-10T12:29:06.009Z,22.07
2019-06-10T12:31:36.046Z,21.10
2019-06-10T12:34:06.031Z,21.12
2019-06-10T12:36:35.915Z,20.20
2019-06-10T12:39:10.620Z,19.92
2019-06-10T12:44:12.081Z,19.77
2019-06-10T12:46:43.095Z,19.30
2019-06-10T12:49:14.212Z,20.12
2019-06-10T12:51:46.044Z,20.23
2019-06-10T12:54:15.950Z,19.60
2019-06-10T12:56:46.432Z,21.60
2019-06-10T12:59:17.148Z,21.23
2019-06-10T13:01:47.348Z,20.47
2019-06-10T13:04:17.951Z,20.60
2019-06-10T13:06:48.048Z,21.25
2019-06-10T13:09:18.415Z,21.20
2019-06-10T13:11:49.368Z,22.10
2019-06-10T13:14:21.943Z,22.20
2019-06-10T13:16:52.482Z,22.77
2019-06-10T13:19:23.114Z,22.63
2019-06-10T13:21:52.924Z,24.30
2019-06-10T13:24:22.454Z,21.93
2019-06-10T13:26:53.502Z,23.97
2019-06-10T13:29:25.031Z,22.50
2019-06-10T13:31:54.391Z,23.22
2019-06-10T13:34:24.040Z,23.57
2019-06-10T13:36:53.958Z,23.73
2019-06-10T13:39:26.934Z,23.83
2019-06-10T13:41:57.535Z,24.80
2019-06-10T13:44:26.508Z,24.67
2019-06-10T13:46:59.534Z,22.90
2019-06-10T13:49:29.189Z,23.80
2019-06-10T13:51:59.429Z,24.13
2019-06-10T13:54:29.118Z,25.43
2019-06-10T13:56:59.254Z,25.67
2019-06-10T13:59:28.990Z,25.10
2019-06-10T14:04:44.040Z,26.75
2019-06-10T14:07:24.781Z,27.20
2019-06-10T14:09:56.274Z,26.43
2019-06-10T14:12:26.457Z,27.93
2019-06-10T14:14:55.988Z,27.40
2019-06-10T14:17:25.260Z,27.10
2019-06-10T14:19:53.955Z,27.07
2019-06-10T14:22:24.048Z,27.47
2019-06-10T14:24:53.899Z,27.93
2019-06-10T14:27:24.763Z,28.27
2019-06-10T14:29:52.918Z,26.87
2019-06-10T14:32:22.794Z,28.30
2019-06-10T14:34:52.636Z,27.77
2019-06-10T14:37:34.908Z,28.60
2019-06-10T14:39:52.896Z,29.40
2019-06-10T14:42:23.037Z,27.47
2019-06-10T14:44:53.163Z,27.57
2019-06-10T14:47:23.160Z,28.53
2019-06-10T14:49:53.087Z,28.40
2019-06-10T14:52:22.720Z,29.03
2019-06-10T14:54:53.198Z,27.93
2019-06-10T14:57:22.915Z,28.80
2019-06-10T14:59:53.634Z,29.33
2019-06-10T15:02:23.788Z,29.83
2019-06-10T15:04:53.544Z,30.37
2019-06-10T15:07:23.807Z,29.70
2019-06-10T15:09:53.319Z,29.30
2019-06-10T15:12:23.021Z,31.27
2019-06-10T15:14:53.789Z,32.07
2019-06-10T15:17:23.193Z,31.27
2019-06-10T15:19:53.076Z,30.30
2019-06-10T15:22:23.861Z,30.67
2019-06-10T15:24:53.949Z,30.17
2019-06-10T15:27:29.914Z,31.00
2019-06-10T15:29:53.632Z,29.80
2019-06-10T15:32:33.723Z,29.73
2019-06-10T15:34:55.392Z,30.27
2019-06-10T15:37:28.824Z,30.53
2019-06-10T15:39:57.158Z,31.17
2019-06-10T15:42:26.910Z,30.67
2019-06-10T15:44:57.193Z,30.67
2019-06-10T15:47:27.385Z,30.17
2019-06-10T15:49:57.788Z,30.30
2019-06-10T15:52:27.628Z,30.17
2019-06-10T15:54:58.408Z,29.70
2019-06-10T15:57:39.319Z,30.63
2019-06-10T15:59:58.832Z,30.93
2019-06-10T16:02:28.840Z,30.30
2019-06-10T16:04:58.921Z,30.97
2019-06-10T16:07:29.005Z,29.50
2019-06-10T16:10:02.700Z,29.23
2019-06-10T16:12:32.904Z,31.20
2019-06-10T16:15:02.656Z,30.90
2019-06-10T16:17:33.185Z,30.73
2019-06-10T16:20:03.626Z,31.00
2019-06-10T16:22:31.607Z,30.10
2019-06-10T16:25:03.467Z,30.13
2019-06-10T16:27:46.290Z,30.80
2019-06-10T16:30:03.797Z,30.23
2019-06-10T16:32:33.628Z,31.43
2019-06-10T16:35:04.024Z,31.40
2019-06-10T16:37:33.877Z,31.07
2019-06-10T16:40:03.490Z,31.63
2019-06-10T16:42:33.332Z,32.70
2019-06-10T16:45:03.397Z,31.40
2019-06-10T16:47:32.825Z,30.57
2019-06-10T16:50:03.709Z,30.57
2019-06-10T16:52:34.252Z,30.70
2019-06-10T16:55:03.003Z,31.70
2019-06-10T16:57:33.442Z,31.33
2019-06-10T17:00:10.907Z,30.30
2019-06-10T17:02:33.370Z,32.17
2019-06-10T17:05:03.293Z,31.33
2019-06-10T17:07:32.995Z,31.00
2019-06-10T17:10:02.597Z,31.97
2019-06-10T17:12:33.129Z,32.10
2019-06-10T17:15:03.581Z,30.27
2019-06-10T17:17:34.109Z,30.67
2019-06-10T17:20:04.846Z,30.67
2019-06-10T17:22:35.550Z,31.87
2019-06-10T17:25:06.277Z,30.93
2019-06-10T17:27:36.851Z,30.33
2019-06-10T17:30:06.496Z,31.27
2019-06-10T17:32:36.844Z,30.40
2019-06-10T17:35:09.491Z,30.70
2019-06-10T17:37:39.039Z,31.03
2019-06-10T17:40:08.743Z,30.87
2019-06-10T17:42:38.747Z,30.77
2019-06-10T17:45:08.304Z,31.70
2019-06-10T17:47:38.593Z,31.60
2019-06-10T17:50:08.727Z,30.80
2019-06-10T17:52:38.986Z,31.27
2019-06-10T17:55:12.559Z,32.03
2019-06-10T17:57:42.992Z,32.07
2019-06-10T18:00:14.900Z,30.30
2019-06-10T18:02:53.531Z,30.90
2019-06-10T18:05:22.517Z,31.83
2019-06-10T18:07:52.689Z,30.63
2019-06-10T18:10:23.992Z,32.07
2019-06-10T18:12:52.943Z,31.30
2019-06-10T18:15:24.043Z,30.87
2019-06-10T18:17:55.876Z,30.37
2019-06-10T18:20:24.413Z,31.30
2019-06-10T18:22:54.104Z,31.20
2019-06-10T18:25:24.581Z,30.80
2019-06-10T18:27:54.912Z,31.33
2019-06-10T18:30:25.117Z,32.23
2019-06-10T18:32:55.075Z,32.17
2019-06-10T18:35:25.842Z,31.37
2019-06-10T18:37:55.234Z,30.37
2019-06-10T18:40:25.315Z,30.00
2019-06-10T18:42:55.674Z,31.20
2019-06-10T18:45:26.016Z,30.33
2019-06-10T18:47:55.622Z,31.30
2019-06-10T18:50:26.068Z,29.97
2019-06-10T18:52:57.362Z,31.77
2019-06-10T18:55:26.254Z,30.30
2019-06-10T18:57:56.848Z,31.60
2019-06-10T19:00:39.912Z,31.33
2019-06-10T19:03:09.236Z,30.20
2019-06-10T19:05:28.519Z,31.67
2019-06-10T19:07:58.706Z,31.00
2019-06-10T19:10:29.464Z,31.83
2019-06-10T19:12:59.560Z,32.17
2019-06-10T19:15:31.857Z,30.13
2019-06-10T19:18:03.187Z,32.77
2019-06-10T19:20:36.443Z,31.83
2019-06-10T19:23:04.242Z,31.97
2019-06-10T19:25:37.255Z,31.87
2019-06-10T19:28:05.268Z,32.00
2019-06-10T19:30:37.704Z,31.27
2019-06-10T19:33:05.589Z,33.47
2019-06-10T19:35:36.666Z,30.87
2019-06-10T19:38:05.784Z,32.37
2019-06-10T19:40:37.168Z,32.77
2019-06-10T19:43:06.907Z,32.17
2019-06-10T19:45:36.693Z,32.60
2019-06-10T19:48:06.750Z,32.60
2019-06-10T19:50:37.582Z,32.30
2019-06-10T19:53:07.798Z,31.83
2019-06-10T19:55:38.958Z,32.27
2019-06-10T19:58:10.553Z,32.70
2019-06-10T20:00:41.502Z,34.10
2019-06-10T20:03:12.051Z,32.90
2019-06-10T20:05:44.878Z,33.30
2019-06-10T20:08:12.828Z,32.87
2019-06-10T20:10:42.660Z,33.50
2019-06-10T20:13:12.673Z,35.03
2019-06-10T20:15:45.016Z,33.60
2019-06-10T20:18:13.786Z,32.10
2019-06-10T20:20:45.870Z,32.03
2019-06-10T20:23:14.932Z,33.87
2019-06-10T20:25:46.841Z,33.00
2019-06-10T20:28:16.024Z,32.03
2019-06-10T20:30:47.786Z,31.37
2019-06-10T20:33:16.908Z,33.23
2019-06-10T20:35:47.245Z,32.00
2019-06-10T20:38:17.232Z,33.37
2019-06-10T20:40:48.714Z,32.80
2019-06-10T20:43:19.586Z,32.30
2019-06-10T20:45:50.121Z,32.17
2019-06-10T20:48:22.461Z,32.77
2019-06-10T20:50:53.188Z,33.47
2019-06-10T20:53:21.315Z,32.30
2019-06-10T20:55:54.997Z,29.63
2019-06-10T20:58:22.494Z,32.17
2019-06-10T21:00:53.952Z,33.40
2019-06-10T21:03:23.159Z,32.30
2019-06-10T21:05:53.497Z,32.80
2019-06-10T21:08:23.124Z,33.37
2019-06-10T21:10:54.555Z,31.87
2019-06-10T21:13:24.494Z,31.50
2019-06-10T21:15:55.591Z,33.80
2019-06-10T21:18:24.687Z,31.80
2019-06-10T21:20:56.280Z,34.87
2019-06-10T21:23:26.752Z,32.97
2019-06-10T21:25:56.385Z,31.27
2019-06-10T21:28:27.214Z,33.90
2019-06-10T21:30:58.842Z,35.73
2019-06-10T21:33:28.096Z,33.00
2019-06-10T21:35:58.113Z,34.57
2019-06-10T21:38:27.863Z,34.07
2019-06-10T21:40:58.331Z,32.70
2019-06-10T21:43:27.544Z,32.87
2019-06-10T21:45:57.883Z,33.90
2019-06-10T21:48:27.865Z,33.67
2019-06-10T21:50:57.418Z,35.07
2019-06-10T21:53:26.882Z,32.80
2019-06-10T21:55:56.508Z,35.30
2019-06-10T21:58:26.509Z,34.17
2019-06-10T22:01:10.846Z,33.17
2019-06-10T22:03:26.801Z,36.67
2019-06-10T22:05:56.830Z,36.60
2019-06-10T22:08:26.913Z,33.73
2019-06-10T22:10:56.759Z,36.57
2019-06-10T22:13:26.753Z,34.67
2019-06-10T22:15:57.166Z,36.73
2019-06-10T22:18:26.909Z,40.17
2019-06-10T22:20:57.945Z,39.80
2019-06-10T22:23:28.648Z,46.27
2019-06-10T22:25:58.745Z,49.47
2019-06-10T22:28:29.054Z,43.43
2019-06-10T22:31:15.157Z,38.67
2019-06-10T22:33:29.626Z,40.10
2019-06-10T22:35:59.456Z,37.03
2019-06-10T22:38:29.469Z,37.60
2019-06-10T22:40:59.314Z,34.07
2019-06-10T22:43:29.090Z,36.37
2019-06-10T22:45:59.878Z,35.67
2019-06-10T22:48:28.705Z,37.30
2019-06-10T22:50:59.551Z,34.90
2019-06-10T22:53:28.972Z,35.20
2019-06-10T22:55:59.243Z,35.97
2019-06-10T22:58:28.112Z,35.67
2019-06-10T23:00:57.893Z,35.47
2019-06-10T23:03:27.161Z,35.90
2019-06-10T23:05:56.849Z,35.47
2019-06-10T23:08:26.266Z,35.17
2019-06-10T23:10:58.107Z,35.67
2019-06-10T23:13:28.677Z,34.87
2019-06-10T23:15:58.660Z,35.50
2019-06-10T23:18:28.461Z,34.53
2019-06-10T23:20:59.711Z,35.90
2019-06-10T23:23:28.237Z,34.50
2019-06-10T23:25:58.178Z,37.87
2019-06-10T23:28:28.513Z,39.67
2019-06-10T23:31:00.215Z,39.73
2019-06-10T23:33:29.308Z,42.57
2019-06-10T23:36:01.399Z,39.87
2019-06-10T23:38:32.964Z,39.93
2019-06-10T23:41:03.770Z,42.67
2019-06-10T23:43:33.013Z,44.20
2019-06-10T23:46:04.414Z,43.87
2019-06-10T23:48:33.365Z,44.20
2019-06-10T23:51:04.911Z,44.10
2019-06-10T23:53:33.503Z,47.23
2019-06-10T23:56:04.869Z,44.67
2019-06-10T23:58:33.956Z,44.93
